createdAt,value
2017-03-03T00:00:10.191Z,21.74
2017-03-03T00:00:30.010Z,21.7
2017-03-03T00:00:50.458Z,21.69
2017-03-03T00:01:10.914Z,21.69
2017-03-03T00:01:31.428Z,21.61
2017-03-03T00:01:51.217Z,21.67
2017-03-03T00:02:10.417Z,21.59
2017-03-03T00:02:30.264Z,21.63
2017-03-03T00:02:50.100Z,21.6
2017-03-03T00:03:10.612Z,21.59
2017-03-03T00:03:31.068Z,21.6
2017-03-03T00:03:51.667Z,21.57
2017-03-03T00:04:12.173Z,21.56
2017-03-03T00:04:32.013Z,21.66
2017-03-03T00:04:51.829Z,21.69
2017-03-03T00:05:12.309Z,21.69
2017-03-03T00:05:32.748Z,21.76
2017-03-03T00:05:51.871Z,21.72
2017-03-03T00:06:12.331Z,21.75
2017-03-03T00:06:32.776Z,21.67
2017-03-03T00:06:53.223Z,21.76
2017-03-03T00:07:13.659Z,21.82
2017-03-03T00:07:34.173Z,21.89
2017-03-03T00:07:53.987Z,21.85
2017-03-03T00:08:14.448Z,22.01
2017-03-03T00:08:34.873Z,21.78
2017-03-03T00:08:55.609Z,21.84
2017-03-03T00:09:16.065Z,21.75
2017-03-03T00:09:35.847Z,21.79
2017-03-03T00:09:56.305Z,21.81
2017-03-03T00:10:16.172Z,21.72
2017-03-03T00:10:35.959Z,21.76
2017-03-03T00:10:56.412Z,21.75
2017-03-03T00:11:16.878Z,21.78
2017-03-03T00:11:37.352Z,21.76
2017-03-03T00:11:57.807Z,21.76
2017-03-03T00:12:18.226Z,21.86
2017-03-03T00:12:37.403Z,21.76
2017-03-03T00:12:57.831Z,21.84
2017-03-03T00:13:18.289Z,21.82
2017-03-03T00:13:38.731Z,21.79
2017-03-03T00:13:59.277Z,21.84
2017-03-03T00:14:19.734Z,21.92
2017-03-03T00:14:39.533Z,21.91
2017-03-03T00:14:59.954Z,21.95
2017-03-03T00:15:20.457Z,21.97
2017-03-03T00:15:40.943Z,22.02
2017-03-03T00:16:01.382Z,22.02
2017-03-03T00:16:21.828Z,22.01
2017-03-03T00:16:41.632Z,22.05
2017-03-03T00:17:02.151Z,21.98
2017-03-03T00:17:22.632Z,22.05
2017-03-03T00:17:42.401Z,22.04
2017-03-03T00:18:02.819Z,21.97
2017-03-03T00:18:22.623Z,22.04
2017-03-03T00:18:43.066Z,22.07
2017-03-03T00:19:02.883Z,22.07
2017-03-03T00:19:24.310Z,22.04
2017-03-03T00:19:44.804Z,22.07
2017-03-03T00:20:05.261Z,22.08
2017-03-03T00:20:25.720Z,22.05
2017-03-03T00:20:45.648Z,22.15
2017-03-03T00:21:06.161Z,22.08
2017-03-03T00:21:26.027Z,22.08
2017-03-03T00:21:46.503Z,22.13
2017-03-03T00:22:06.980Z,22.15
2017-03-03T00:22:26.838Z,22.04
2017-03-03T00:22:47.336Z,22.1
2017-03-03T00:23:07.864Z,22.16
2017-03-03T00:23:27.842Z,22.04
2017-03-03T00:23:48.291Z,22.13
2017-03-03T00:24:08.799Z,22.15
2017-03-03T00:24:29.327Z,22.19
2017-03-03T00:24:49.808Z,22.07
2017-03-03T00:25:09.564Z,22.16
2017-03-03T00:25:30.047Z,22.15
2017-03-03T00:25:50.489Z,22.13
2017-03-03T00:26:10.939Z,22.15
2017-03-03T00:26:31.465Z,22.19
2017-03-03T00:26:51.967Z,22.19
2017-03-03T00:27:12.448Z,22.16
2017-03-03T00:27:32.923Z,22.17
2017-03-03T00:27:52.815Z,22.22
2017-03-03T00:28:13.336Z,22.2
2017-03-03T00:28:34.223Z,22.16
2017-03-03T00:28:54.972Z,22.2
2017-03-03T00:29:15.402Z,22.24
2017-03-03T00:29:36.422Z,22.22
2017-03-03T00:29:57.030Z,22.13
2017-03-03T00:30:16.926Z,22.2
2017-03-03T00:30:36.736Z,22.3
2017-03-03T00:30:57.186Z,22.31
2017-03-03T00:31:17.660Z,22.31
2017-03-03T00:31:38.110Z,22.26
2017-03-03T00:31:58.573Z,22.23
2017-03-03T00:32:18.383Z,22.34
2017-03-03T00:32:38.934Z,22.2
2017-03-03T00:32:59.376Z,22.24
2017-03-03T00:33:19.804Z,22.28
2017-03-03T00:33:40.334Z,22.31
2017-03-03T00:34:00.790Z,22.15
2017-03-03T00:34:21.308Z,22.19
2017-03-03T00:34:55.536Z,22.26
2017-03-03T00:35:15.991Z,22.26
2017-03-03T00:35:36.433Z,22.23
2017-03-03T00:35:56.921Z,22.34
2017-03-03T00:36:17.433Z,22.34
2017-03-03T00:36:37.955Z,22.32
2017-03-03T00:36:58.411Z,22.38
2017-03-03T00:37:18.859Z,22.37
2017-03-03T00:37:39.293Z,22.34
2017-03-03T00:38:00.068Z,22.34
2017-03-03T00:38:19.873Z,22.35
2017-03-03T00:38:40.411Z,22.38
2017-03-03T00:39:01.048Z,22.35
2017-03-03T00:39:20.887Z,22.35
2017-03-03T00:39:41.414Z,22.37
2017-03-03T00:40:01.871Z,22.38
2017-03-03T00:40:22.292Z,22.38
2017-03-03T00:40:42.082Z,22.46
2017-03-03T00:41:02.544Z,22.37
2017-03-03T00:41:23.048Z,22.35
2017-03-03T00:41:42.887Z,22.42
2017-03-03T00:42:03.392Z,22.49
2017-03-03T00:42:23.891Z,22.39
2017-03-03T00:42:44.399Z,22.47
2017-03-03T00:43:04.862Z,22.35
2017-03-03T00:43:25.325Z,22.42
2017-03-03T00:43:45.140Z,22.41
2017-03-03T00:44:05.915Z,22.35
2017-03-03T00:44:26.408Z,22.38
2017-03-03T00:44:45.562Z,22.34
2017-03-03T00:45:06.017Z,22.34
2017-03-03T00:45:26.491Z,22.26
2017-03-03T00:45:47.000Z,22.23
2017-03-03T00:46:06.826Z,22.24
2017-03-03T00:46:27.278Z,22.3
2017-03-03T00:46:47.749Z,22.22
2017-03-03T00:47:06.938Z,22.2
2017-03-03T00:47:27.404Z,22.2
2017-03-03T00:47:47.854Z,22.23
2017-03-03T00:48:07.640Z,22.16
2017-03-03T00:48:28.102Z,22.17
2017-03-03T00:48:47.952Z,22.15
2017-03-03T00:49:07.775Z,22.15
2017-03-03T00:49:27.600Z,22.12
2017-03-03T00:49:47.370Z,22.1
2017-03-03T00:50:07.841Z,22.13
2017-03-03T00:50:28.296Z,22.2
2017-03-03T00:50:48.767Z,22.15
2017-03-03T00:51:09.217Z,22.13
2017-03-03T00:51:29.695Z,22.12
2017-03-03T00:51:50.126Z,22.01
2017-03-03T00:52:10.558Z,22.07
2017-03-03T00:52:29.749Z,22.05
2017-03-03T00:52:50.234Z,22.04
2017-03-03T00:53:10.068Z,22.07
2017-03-03T00:53:30.494Z,22.07
2017-03-03T00:53:50.935Z,22
2017-03-03T00:54:10.046Z,22.07
2017-03-03T00:54:30.516Z,22
2017-03-03T00:54:50.980Z,21.97
2017-03-03T00:55:11.383Z,21.98
2017-03-03T00:55:31.846Z,22.04
2017-03-03T00:55:51.622Z,21.98
2017-03-03T00:56:12.062Z,22.02
2017-03-03T00:56:32.529Z,22.02
2017-03-03T00:56:52.321Z,22.07
2017-03-03T00:57:12.752Z,22.02
2017-03-03T00:57:32.568Z,22.04
2017-03-03T00:57:53.027Z,22.1
2017-03-03T00:58:13.538Z,22.08
2017-03-03T00:58:33.997Z,22.19
2017-03-03T00:58:54.441Z,22.13
2017-03-03T00:59:15.149Z,22.12
2017-03-03T00:59:35.604Z,22.16
2017-03-03T00:59:55.400Z,22.07
2017-03-03T01:00:15.194Z,22.05
2017-03-03T01:00:35.703Z,22.17
2017-03-03T01:00:55.537Z,22.12
2017-03-03T01:01:15.972Z,22.13
2017-03-03T01:01:36.398Z,22.15
2017-03-03T01:01:56.219Z,22.15
2017-03-03T01:02:16.698Z,22.13
2017-03-03T01:02:37.128Z,22.13
2017-03-03T01:02:57.575Z,22.16
2017-03-03T01:03:18.053Z,22.02
2017-03-03T01:03:38.514Z,22.02
2017-03-03T01:03:58.326Z,22.13
2017-03-03T01:04:18.927Z,22.15
2017-03-03T01:04:38.724Z,22.07
2017-03-03T01:04:59.196Z,22.08
2017-03-03T01:05:19.645Z,22.1
2017-03-03T01:05:39.441Z,22.02
2017-03-03T01:05:59.889Z,22.05
2017-03-03T01:06:19.691Z,22.02
2017-03-03T01:06:40.122Z,22.07
2017-03-03T01:06:59.922Z,22.12
2017-03-03T01:07:20.361Z,22.05
2017-03-03T01:07:40.800Z,22.04
2017-03-03T01:08:01.234Z,22.07
2017-03-03T01:08:21.705Z,22.07
2017-03-03T01:08:42.146Z,22.04
2017-03-03T01:09:02.603Z,22.07
2017-03-03T01:09:23.211Z,22.02
2017-03-03T01:09:43.651Z,22.04
2017-03-03T01:10:04.103Z,22.1
2017-03-03T01:10:24.560Z,22.1
2017-03-03T01:10:44.967Z,22.05
2017-03-03T01:11:04.784Z,22.04
2017-03-03T01:11:25.231Z,22.02
2017-03-03T01:11:45.669Z,22.08
2017-03-03T01:12:06.110Z,22.05
2017-03-03T01:12:25.910Z,22.05
2017-03-03T01:12:45.718Z,22.07
2017-03-03T01:13:06.172Z,22.15
2017-03-03T01:13:26.598Z,22.07
2017-03-03T01:13:46.416Z,22.08
2017-03-03T01:14:06.891Z,22.12
2017-03-03T01:14:26.848Z,22
2017-03-03T01:14:47.325Z,22.05
2017-03-03T01:15:07.809Z,22.02
2017-03-03T01:15:28.282Z,22.08
2017-03-03T01:15:48.729Z,22.05
2017-03-03T01:16:09.208Z,22.05
2017-03-03T01:16:29.641Z,22.04
2017-03-03T01:16:50.144Z,22.02
2017-03-03T01:17:10.618Z,22.01
2017-03-03T01:17:31.098Z,22.05
2017-03-03T01:17:51.544Z,22.02
2017-03-03T01:18:11.324Z,22.05
2017-03-03T01:18:31.135Z,22.04
2017-03-03T01:18:51.568Z,22.08
2017-03-03T01:19:12.026Z,22.05
2017-03-03T01:19:32.476Z,22.04
2017-03-03T01:19:53.002Z,22.04
2017-03-03T01:20:12.813Z,22.02
2017-03-03T01:20:33.267Z,22.05
2017-03-03T01:20:53.691Z,21.98
2017-03-03T01:21:14.170Z,22.08
2017-03-03T01:21:34.601Z,22.05
2017-03-03T01:21:55.038Z,22.04
2017-03-03T01:22:14.878Z,22.01
2017-03-03T01:22:35.294Z,22.07
2017-03-03T01:22:55.761Z,22.05
2017-03-03T01:23:15.555Z,22.01
2017-03-03T01:23:35.987Z,21.98
2017-03-03T01:23:56.448Z,22
2017-03-03T01:24:16.914Z,22.04
2017-03-03T01:24:36.103Z,21.98
2017-03-03T01:24:56.568Z,22.08
2017-03-03T01:25:17.007Z,22.04
2017-03-03T01:25:36.796Z,22.04
2017-03-03T01:25:57.259Z,22.05
2017-03-03T01:26:17.703Z,22.05
2017-03-03T01:26:38.172Z,22.07
2017-03-03T01:26:57.996Z,22.02
2017-03-03T01:27:18.418Z,22.04
2017-03-03T01:27:38.237Z,22.07
2017-03-03T01:27:58.712Z,22.1
2017-03-03T01:28:19.156Z,22.01
2017-03-03T01:28:39.621Z,22.05
2017-03-03T01:28:59.450Z,22.04
2017-03-03T01:29:20.036Z,22.01
2017-03-03T01:29:40.468Z,21.97
2017-03-03T01:30:00.281Z,21.91
2017-03-03T01:30:20.762Z,21.95
2017-03-03T01:30:40.559Z,21.98
2017-03-03T01:31:01.025Z,21.85
2017-03-03T01:31:21.465Z,21.86
2017-03-03T01:31:41.893Z,21.86
2017-03-03T01:32:02.326Z,21.85
2017-03-03T01:32:22.785Z,21.86
2017-03-03T01:32:43.236Z,21.85
2017-03-03T01:33:03.700Z,21.86
2017-03-03T01:33:24.119Z,21.95
2017-03-03T01:33:43.905Z,21.86
2017-03-03T01:34:03.707Z,22
2017-03-03T01:34:23.791Z,21.85
2017-03-03T01:34:44.207Z,22
2017-03-03T01:35:04.692Z,21.98
2017-03-03T01:35:25.128Z,21.95
2017-03-03T01:35:45.584Z,21.85
2017-03-03T01:36:06.036Z,21.98
2017-03-03T01:36:25.817Z,21.98
2017-03-03T01:36:45.640Z,21.95
2017-03-03T01:37:06.104Z,21.98
2017-03-03T01:37:26.565Z,21.97
2017-03-03T01:37:46.990Z,22
2017-03-03T01:38:07.446Z,21.98
2017-03-03T01:38:27.887Z,22.02
2017-03-03T01:38:48.348Z,21.98
2017-03-03T01:39:08.774Z,21.97
2017-03-03T01:39:29.234Z,22
2017-03-03T01:39:49.700Z,22.04
2017-03-03T01:40:09.518Z,21.98
2017-03-03T01:40:29.958Z,22.04
2017-03-03T01:40:49.109Z,22
2017-03-03T01:41:09.610Z,22.01
2017-03-03T01:41:30.057Z,22.1
2017-03-03T01:41:50.493Z,22.02
2017-03-03T01:42:10.951Z,22.02
2017-03-03T01:42:31.428Z,22.04
2017-03-03T01:42:51.847Z,22.02
2017-03-03T01:43:12.274Z,22.05
2017-03-03T01:43:32.700Z,22.02
2017-03-03T01:43:53.142Z,22.07
2017-03-03T01:44:12.964Z,22.01
2017-03-03T01:44:33.414Z,22.15
2017-03-03T01:44:53.819Z,22.13
2017-03-03T01:45:14.291Z,22.16
2017-03-03T01:45:34.725Z,22.12
2017-03-03T01:45:55.164Z,22.12
2017-03-03T01:46:14.988Z,22.16
2017-03-03T01:46:35.433Z,22.08
2017-03-03T01:46:55.864Z,22.05
2017-03-03T01:47:16.319Z,22.16
2017-03-03T01:47:36.109Z,22.07
2017-03-03T01:47:56.529Z,22.13
2017-03-03T01:48:17.049Z,22.1
2017-03-03T01:48:37.572Z,22.15
2017-03-03T01:48:57.493Z,22.17
2017-03-03T01:49:17.980Z,22.05
2017-03-03T01:49:38.458Z,22.02
2017-03-03T01:49:58.894Z,22
2017-03-03T01:50:18.747Z,22.02
2017-03-03T01:50:39.210Z,22.05
2017-03-03T01:50:59.667Z,22.05
2017-03-03T01:51:20.658Z,22.02
2017-03-03T01:51:41.159Z,22.05
2017-03-03T01:52:01.605Z,22.05
2017-03-03T01:52:22.146Z,22.02
2017-03-03T01:52:42.647Z,22.05
2017-03-03T01:53:03.130Z,22.08
2017-03-03T01:53:23.588Z,22.05
2017-03-03T01:53:44.567Z,22.05
2017-03-03T01:54:04.403Z,22.05
2017-03-03T01:54:24.955Z,22.05
2017-03-03T01:54:45.400Z,22.08
2017-03-03T01:55:05.862Z,22.08
2017-03-03T01:55:26.363Z,22.07
2017-03-03T01:55:46.789Z,22.15
2017-03-03T01:56:07.260Z,22.1
2017-03-03T01:56:27.743Z,22.16
2017-03-03T01:56:48.217Z,22.15
2017-03-03T01:57:08.743Z,22.16
2017-03-03T01:57:29.227Z,22.16
2017-03-03T01:57:49.057Z,22.19
2017-03-03T01:58:09.588Z,22.16
2017-03-03T01:58:30.078Z,22.13
2017-03-03T01:58:50.539Z,22.15
2017-03-03T01:59:10.989Z,22.16
2017-03-03T01:59:31.465Z,22.16
2017-03-03T01:59:51.945Z,22.15
2017-03-03T02:00:12.439Z,22.17
2017-03-03T02:00:34.601Z,22.15
2017-03-03T02:00:55.088Z,22.16
2017-03-03T02:01:15.527Z,22.12
2017-03-03T02:01:36.008Z,22.16
2017-03-03T02:01:56.529Z,22.16
2017-03-03T02:02:16.967Z,22.16
2017-03-03T02:02:37.580Z,22.17
2017-03-03T02:02:58.035Z,22.12
2017-03-03T02:03:18.586Z,22.16
2017-03-03T02:03:39.068Z,22.07
2017-03-03T02:03:59.629Z,22.05
2017-03-03T02:04:20.118Z,22.1
2017-03-03T02:04:40.748Z,22.05
2017-03-03T02:05:01.218Z,22.16
2017-03-03T02:05:21.737Z,22.01
2017-03-03T02:05:42.180Z,21.98
2017-03-03T02:06:02.593Z,22.05
2017-03-03T02:06:22.997Z,21.98
2017-03-03T02:06:43.420Z,22.05
2017-03-03T02:07:03.183Z,22
2017-03-03T02:07:23.657Z,22.04
2017-03-03T02:07:44.140Z,22.05
2017-03-03T02:08:04.621Z,22.13
2017-03-03T02:08:25.059Z,22.1
2017-03-03T02:08:45.497Z,22.2
2017-03-03T02:09:05.942Z,22.19
2017-03-03T02:09:26.403Z,22.2
2017-03-03T02:09:46.842Z,22.19
2017-03-03T02:10:07.330Z,22.2
2017-03-03T02:10:27.790Z,22.17
2017-03-03T02:10:48.254Z,22.19
2017-03-03T02:11:08.711Z,22.16
2017-03-03T02:11:29.188Z,22.2
2017-03-03T02:11:49.666Z,22.15
2017-03-03T02:12:09.466Z,22.15
2017-03-03T02:12:29.283Z,22.15
2017-03-03T02:12:49.748Z,22.16
2017-03-03T02:13:10.184Z,22.15
2017-03-03T02:13:30.646Z,22.08
2017-03-03T02:13:49.834Z,22.16
2017-03-03T02:14:10.327Z,22.16
2017-03-03T02:14:30.916Z,22.15
2017-03-03T02:14:51.367Z,22.22
2017-03-03T02:15:11.805Z,22.17
2017-03-03T02:15:32.237Z,22.15
2017-03-03T02:15:52.682Z,22.19
2017-03-03T02:16:11.829Z,22.16
2017-03-03T02:16:31.643Z,22.15
2017-03-03T02:16:51.488Z,22.19
2017-03-03T02:17:25.710Z,22.15
2017-03-03T02:17:45.500Z,22.16
2017-03-03T02:18:05.944Z,22.17
2017-03-03T02:18:26.414Z,22.19
2017-03-03T02:18:46.245Z,22.16
2017-03-03T02:19:06.708Z,22.2
2017-03-03T02:19:27.168Z,22.15
2017-03-03T02:19:46.969Z,22.16
2017-03-03T02:20:07.434Z,22.15
2017-03-03T02:20:27.838Z,22.15
2017-03-03T02:20:48.278Z,22.16
2017-03-03T02:21:08.086Z,22.13
2017-03-03T02:21:28.557Z,22.12
2017-03-03T02:21:49.041Z,22.16
2017-03-03T02:22:08.223Z,22.15
2017-03-03T02:22:28.672Z,22.17
2017-03-03T02:22:49.148Z,22.1
2017-03-03T02:23:09.663Z,22.12
2017-03-03T02:23:30.173Z,22.16
2017-03-03T02:23:50.697Z,22.13
2017-03-03T02:24:11.148Z,22.12
2017-03-03T02:24:31.594Z,22.12
2017-03-03T02:24:52.025Z,22.17
2017-03-03T02:25:12.451Z,22.19
2017-03-03T02:25:32.281Z,22.13
2017-03-03T02:25:52.748Z,22.13
2017-03-03T02:26:12.560Z,22.12
2017-03-03T02:26:33.026Z,22.1
2017-03-03T02:26:53.568Z,22.15
2017-03-03T02:27:12.716Z,22.1
2017-03-03T02:27:33.628Z,22.15
2017-03-03T02:27:53.420Z,22.15
2017-03-03T02:28:13.254Z,22.12
2017-03-03T02:28:33.731Z,22.07
2017-03-03T02:28:54.215Z,22.08
2017-03-03T02:29:15.696Z,22.01
2017-03-03T02:29:36.173Z,22.1
2017-03-03T02:29:56.613Z,22.1
2017-03-03T02:30:16.424Z,22.13
2017-03-03T02:30:36.904Z,22.16
2017-03-03T02:30:57.333Z,22.1
2017-03-03T02:31:17.802Z,22.16
2017-03-03T02:31:38.260Z,22.13
2017-03-03T02:31:58.709Z,22.12
2017-03-03T02:32:19.183Z,22.1
2017-03-03T02:32:39.663Z,22.15
2017-03-03T02:33:00.099Z,22.13
2017-03-03T02:33:19.904Z,22.13
2017-03-03T02:33:40.412Z,22.13
2017-03-03T02:34:00.918Z,22.15
2017-03-03T02:34:20.772Z,22.16
2017-03-03T02:34:41.207Z,22.12
2017-03-03T02:35:01.688Z,22.13
2017-03-03T02:35:22.236Z,22.15
2017-03-03T02:35:42.668Z,22.12
2017-03-03T02:36:03.106Z,22.15
2017-03-03T02:36:22.919Z,22.02
2017-03-03T02:36:42.741Z,22.05
2017-03-03T02:37:03.153Z,22.12
2017-03-03T02:37:23.599Z,22.13
2017-03-03T02:37:43.418Z,22.15
2017-03-03T02:38:03.236Z,22.16
2017-03-03T02:38:23.207Z,22.16
2017-03-03T02:38:43.016Z,22.1
2017-03-03T02:39:02.794Z,22.15
2017-03-03T02:39:23.245Z,22.15
2017-03-03T02:39:43.029Z,22.13
2017-03-03T02:40:03.508Z,22.17
2017-03-03T02:40:22.781Z,22.16
2017-03-03T02:40:43.218Z,22.19
2017-03-03T02:41:03.666Z,22.08
2017-03-03T02:41:24.139Z,22.15
2017-03-03T02:41:44.607Z,22.12
2017-03-03T02:42:05.075Z,22.1
2017-03-03T02:42:25.547Z,22.16
2017-03-03T02:42:45.996Z,22.05
2017-03-03T02:43:06.477Z,22.15
2017-03-03T02:43:26.317Z,22.13
2017-03-03T02:43:46.102Z,22.05
2017-03-03T02:44:06.563Z,22.04
2017-03-03T02:44:27.323Z,22.08
2017-03-03T02:44:47.790Z,22.02
2017-03-03T02:45:08.243Z,22.07
2017-03-03T02:45:28.708Z,22.1
2017-03-03T02:45:49.170Z,22.05
2017-03-03T02:46:08.952Z,22.07
2017-03-03T02:46:29.417Z,22.05
2017-03-03T02:46:49.868Z,22.04
2017-03-03T02:47:10.308Z,22.04
2017-03-03T02:47:30.130Z,22.05
2017-03-03T02:47:50.600Z,22.05
2017-03-03T02:48:11.062Z,21.98
2017-03-03T02:48:31.496Z,22.01
2017-03-03T02:48:51.940Z,21.98
2017-03-03T02:49:12.377Z,22
2017-03-03T02:49:32.803Z,22.01
2017-03-03T02:49:53.251Z,22.07
2017-03-03T02:50:13.031Z,22.02
2017-03-03T02:50:33.470Z,22.04
2017-03-03T02:50:53.297Z,22.07
2017-03-03T02:51:12.460Z,22.01
2017-03-03T02:51:32.262Z,22.02
2017-03-03T02:51:52.073Z,22.01
2017-03-03T02:52:12.541Z,22.04
2017-03-03T02:52:32.986Z,22.08
2017-03-03T02:52:52.781Z,22.05
2017-03-03T02:53:12.588Z,22.05
2017-03-03T02:53:33.044Z,22.05
2017-03-03T02:53:53.543Z,22.01
2017-03-03T02:54:13.981Z,22.05
2017-03-03T02:54:34.455Z,22.02
2017-03-03T02:54:54.913Z,22
2017-03-03T02:55:15.352Z,22.04
2017-03-03T02:55:35.799Z,22
2017-03-03T02:55:56.282Z,22.07
2017-03-03T02:56:16.063Z,21.98
2017-03-03T02:56:35.869Z,22.05
2017-03-03T02:56:56.338Z,22.08
2017-03-03T02:57:16.157Z,22.05
2017-03-03T02:57:36.616Z,22.05
2017-03-03T02:57:57.289Z,22.04
2017-03-03T02:58:17.094Z,22.01
2017-03-03T02:58:36.919Z,22
2017-03-03T02:58:57.374Z,21.98
2017-03-03T02:59:17.889Z,22.04
2017-03-03T02:59:38.338Z,22.01
2017-03-03T02:59:58.131Z,22.02
2017-03-03T03:00:17.952Z,22.1
2017-03-03T03:00:38.435Z,22.02
2017-03-03T03:00:58.880Z,22.1
2017-03-03T03:01:19.306Z,22.04
2017-03-03T03:01:39.101Z,22.07
2017-03-03T03:01:58.861Z,22.02
2017-03-03T03:02:18.675Z,22
2017-03-03T03:02:39.128Z,22.02
2017-03-03T03:02:59.579Z,21.98
2017-03-03T03:03:20.018Z,22
2017-03-03T03:03:40.445Z,22.04
2017-03-03T03:04:00.904Z,22.02
2017-03-03T03:04:21.465Z,22.05
2017-03-03T03:04:41.925Z,22.05
2017-03-03T03:05:01.726Z,22.02
2017-03-03T03:05:22.197Z,22.13
2017-03-03T03:05:42.624Z,22.02
2017-03-03T03:06:03.072Z,22.05
2017-03-03T03:06:22.209Z,22.02
2017-03-03T03:06:42.010Z,22.01
2017-03-03T03:07:02.458Z,21.97
2017-03-03T03:07:22.940Z,21.92
2017-03-03T03:07:43.391Z,21.92
2017-03-03T03:08:03.844Z,21.95
2017-03-03T03:08:23.936Z,22.02
2017-03-03T03:08:44.511Z,22.04
2017-03-03T03:09:04.974Z,22.01
2017-03-03T03:09:25.621Z,22.04
2017-03-03T03:09:46.131Z,22
2017-03-03T03:10:05.924Z,22.02
2017-03-03T03:10:25.732Z,22.07
2017-03-03T03:10:45.559Z,22.05
2017-03-03T03:11:05.989Z,22.02
2017-03-03T03:11:26.422Z,22.04
2017-03-03T03:11:46.885Z,22.07
2017-03-03T03:12:07.332Z,21.97
2017-03-03T03:12:27.845Z,21.92
2017-03-03T03:12:48.339Z,21.92
2017-03-03T03:13:08.776Z,22
2017-03-03T03:13:28.560Z,21.86
2017-03-03T03:13:48.990Z,21.92
2017-03-03T03:14:09.451Z,21.91
2017-03-03T03:14:30.182Z,22
2017-03-03T03:14:50.608Z,21.92
2017-03-03T03:15:11.058Z,21.95
2017-03-03T03:15:31.511Z,21.94
2017-03-03T03:15:51.922Z,21.89
2017-03-03T03:16:11.732Z,21.95
2017-03-03T03:16:32.194Z,21.89
2017-03-03T03:16:52.643Z,21.86
2017-03-03T03:17:13.118Z,21.92
2017-03-03T03:17:33.551Z,22
2017-03-03T03:17:52.720Z,21.94
2017-03-03T03:18:13.183Z,21.94
2017-03-03T03:18:32.964Z,21.89
2017-03-03T03:18:53.401Z,21.94
2017-03-03T03:19:13.837Z,22.01
2017-03-03T03:19:34.629Z,22
2017-03-03T03:19:55.086Z,21.86
2017-03-03T03:20:15.523Z,21.85
2017-03-03T03:20:35.987Z,21.89
2017-03-03T03:20:56.419Z,21.94
2017-03-03T03:21:16.884Z,22
2017-03-03T03:21:37.326Z,21.95
2017-03-03T03:21:57.761Z,21.91
2017-03-03T03:22:18.222Z,21.97
2017-03-03T03:22:38.681Z,22.05
2017-03-03T03:22:58.488Z,21.92
2017-03-03T03:23:18.991Z,21.97
2017-03-03T03:23:58.677Z,21.82
2017-03-03T03:24:19.165Z,21.97
2017-03-03T03:24:39.634Z,21.92
2017-03-03T03:25:00.114Z,21.94
2017-03-03T03:25:19.928Z,21.92
2017-03-03T03:25:39.748Z,22
2017-03-03T03:26:00.182Z,21.98
2017-03-03T03:26:20.628Z,21.97
2017-03-03T03:26:40.462Z,21.95
2017-03-03T03:27:00.920Z,21.98
2017-03-03T03:27:21.408Z,21.98
2017-03-03T03:27:41.868Z,22
2017-03-03T03:28:02.343Z,21.97
2017-03-03T03:28:22.155Z,21.92
2017-03-03T03:28:42.599Z,21.95
2017-03-03T03:29:03.033Z,21.98
2017-03-03T03:29:23.504Z,21.95
2017-03-03T03:29:43.937Z,22
2017-03-03T03:30:04.362Z,21.89
2017-03-03T03:30:24.792Z,22
2017-03-03T03:30:44.574Z,21.92
2017-03-03T03:31:05.056Z,21.94
2017-03-03T03:31:25.502Z,21.97
2017-03-03T03:31:45.939Z,21.84
2017-03-03T03:32:06.401Z,21.95
2017-03-03T03:32:26.881Z,21.94
2017-03-03T03:32:47.339Z,21.98
2017-03-03T03:33:07.156Z,22.02
2017-03-03T03:33:27.597Z,22
2017-03-03T03:33:48.041Z,22.02
2017-03-03T03:34:07.867Z,21.91
2017-03-03T03:34:28.362Z,21.98
2017-03-03T03:34:48.818Z,21.94
2017-03-03T03:35:09.274Z,21.98
2017-03-03T03:35:29.075Z,22.01
2017-03-03T03:35:48.887Z,22.05
2017-03-03T03:36:09.341Z,22.07
2017-03-03T03:36:29.154Z,22.07
2017-03-03T03:36:49.609Z,22.01
2017-03-03T03:37:10.081Z,21.91
2017-03-03T03:37:30.552Z,21.97
2017-03-03T03:37:51.018Z,21.91
2017-03-03T03:38:11.461Z,21.95
2017-03-03T03:38:31.913Z,21.86
2017-03-03T03:38:52.396Z,21.94
2017-03-03T03:39:12.865Z,21.94
2017-03-03T03:39:33.547Z,22
2017-03-03T03:39:54.021Z,21.91
2017-03-03T03:40:14.484Z,21.92
2017-03-03T03:40:34.928Z,21.91
2017-03-03T03:40:55.377Z,21.85
2017-03-03T03:41:15.215Z,21.89
2017-03-03T03:41:35.707Z,21.94
2017-03-03T03:41:56.199Z,21.91
2017-03-03T03:42:16.647Z,22.01
2017-03-03T03:42:37.075Z,22.02
2017-03-03T03:42:57.521Z,21.98
2017-03-03T03:43:17.980Z,21.97
2017-03-03T03:43:38.460Z,21.98
2017-03-03T03:43:58.893Z,21.91
2017-03-03T03:44:19.329Z,21.89
2017-03-03T03:44:38.473Z,21.98
2017-03-03T03:44:58.895Z,21.92
2017-03-03T03:45:19.331Z,21.95
2017-03-03T03:45:39.823Z,22.02
2017-03-03T03:45:59.637Z,22.02
2017-03-03T03:46:20.080Z,22.01
2017-03-03T03:46:40.538Z,22.07
2017-03-03T03:47:00.360Z,22.01
2017-03-03T03:47:20.812Z,22.15
2017-03-03T03:47:41.263Z,22.08
2017-03-03T03:48:01.740Z,22.05
2017-03-03T03:48:22.232Z,22.05
2017-03-03T03:48:42.022Z,22.05
2017-03-03T03:49:02.481Z,22.04
2017-03-03T03:49:22.932Z,22.1
2017-03-03T03:49:42.244Z,22.1
2017-03-03T03:50:02.696Z,22.07
2017-03-03T03:50:23.175Z,22.1
2017-03-03T03:50:43.633Z,22.17
2017-03-03T03:51:04.098Z,22.04
2017-03-03T03:51:24.572Z,22.04
2017-03-03T03:51:45.015Z,22.01
2017-03-03T03:52:05.477Z,22
2017-03-03T03:52:25.947Z,22.02
2017-03-03T03:52:46.374Z,22.02
2017-03-03T03:53:06.847Z,21.98
2017-03-03T03:53:27.320Z,21.89
2017-03-03T03:53:47.795Z,21.97
2017-03-03T03:54:08.241Z,21.95
2017-03-03T03:54:28.046Z,21.89
2017-03-03T03:54:48.473Z,21.92
2017-03-03T03:55:08.314Z,22.04
2017-03-03T03:55:28.785Z,22.01
2017-03-03T03:55:49.229Z,22.07
2017-03-03T03:56:09.037Z,22.04
2017-03-03T03:56:29.481Z,21.94
2017-03-03T03:56:49.297Z,21.95
2017-03-03T03:57:09.775Z,21.94
2017-03-03T03:57:30.226Z,21.86
2017-03-03T03:57:50.695Z,21.91
2017-03-03T03:58:11.164Z,21.98
2017-03-03T03:58:31.643Z,21.91
2017-03-03T03:58:52.114Z,21.95
2017-03-03T03:59:12.593Z,21.92
2017-03-03T03:59:33.993Z,21.94
2017-03-03T03:59:54.467Z,22.02
2017-03-03T04:00:13.661Z,21.97
2017-03-03T04:00:34.108Z,22.02
2017-03-03T04:00:54.532Z,21.98
2017-03-03T04:01:15.007Z,21.95
2017-03-03T04:01:35.471Z,21.98
2017-03-03T04:01:55.911Z,21.91
2017-03-03T04:02:16.361Z,21.92
2017-03-03T04:02:36.160Z,22.04
2017-03-03T04:02:56.608Z,21.95
2017-03-03T04:03:17.057Z,21.95
2017-03-03T04:03:36.856Z,21.84
2017-03-03T04:03:57.289Z,21.86
2017-03-03T04:04:17.739Z,21.86
2017-03-03T04:04:38.182Z,21.75
2017-03-03T04:04:58.652Z,21.81
2017-03-03T04:05:18.485Z,21.98
2017-03-03T04:05:38.969Z,21.89
2017-03-03T04:05:59.433Z,21.92
2017-03-03T04:06:19.883Z,21.89
2017-03-03T04:06:40.320Z,21.97
2017-03-03T04:07:00.786Z,21.98
2017-03-03T04:07:21.236Z,21.98
2017-03-03T04:07:41.676Z,21.89
2017-03-03T04:08:02.111Z,21.95
2017-03-03T04:08:21.931Z,21.95
2017-03-03T04:08:42.413Z,21.91
2017-03-03T04:09:02.880Z,21.85
2017-03-03T04:09:23.354Z,21.85
2017-03-03T04:09:43.295Z,21.86
2017-03-03T04:10:03.729Z,21.86
2017-03-03T04:10:24.171Z,21.75
2017-03-03T04:10:44.612Z,21.82
2017-03-03T04:11:05.099Z,21.79
2017-03-03T04:11:24.888Z,21.84
2017-03-03T04:11:45.372Z,21.81
2017-03-03T04:12:05.829Z,21.76
2017-03-03T04:12:25.049Z,21.92
2017-03-03T04:12:45.497Z,21.85
2017-03-03T04:13:05.951Z,21.91
2017-03-03T04:13:26.438Z,21.89
2017-03-03T04:13:46.247Z,21.79
2017-03-03T04:14:06.706Z,21.89
2017-03-03T04:14:26.504Z,21.82
2017-03-03T04:14:47.364Z,21.89
2017-03-03T04:15:07.146Z,21.85
2017-03-03T04:15:27.615Z,21.84
2017-03-03T04:15:48.049Z,21.91
2017-03-03T04:16:07.877Z,21.86
2017-03-03T04:16:28.362Z,21.84
2017-03-03T04:16:48.795Z,21.86
2017-03-03T04:17:09.270Z,21.89
2017-03-03T04:17:29.750Z,21.85
2017-03-03T04:17:50.207Z,21.76
2017-03-03T04:18:10.675Z,21.81
2017-03-03T04:18:31.124Z,21.78
2017-03-03T04:18:51.542Z,21.72
2017-03-03T04:19:11.995Z,21.79
2017-03-03T04:19:32.460Z,21.81
2017-03-03T04:19:52.938Z,21.84
2017-03-03T04:20:13.382Z,21.79
2017-03-03T04:20:33.845Z,21.7
2017-03-03T04:20:54.304Z,21.79
2017-03-03T04:21:14.776Z,21.76
2017-03-03T04:21:35.232Z,21.79
2017-03-03T04:21:55.680Z,21.72
2017-03-03T04:22:15.457Z,21.81
2017-03-03T04:22:35.928Z,21.74
2017-03-03T04:22:56.408Z,21.82
2017-03-03T04:23:16.888Z,21.76
2017-03-03T04:23:36.703Z,21.75
2017-03-03T04:23:58.452Z,21.81